Accueil
METAR-TAF:

METAR-TAF

Aéroports :

Saint-Gall, Suisse

Aéroport international Saint-Gall-Altenrhein

latitude: 47-29-06N, longitude: 009-33-43E, altitude: 398 m

Observation

Le bulletin a été fait il y a 15 minutes, à 00:20 UTC
Vent 7 kt de est/nord-est, variant entre nord/nord-est et est
Température -1°C
Humidité 80%
Pression 1013 hPa
Visibilité: 8000 m
Ciel couvert à une hauteur de 2400 ft

METAR: LSZR 240020Z AUTO 06007KT 020V100 8000 OVC024 M01/M04 Q1013

Heure: 01:35 (00:35 UTC)

Prévision

Le bulletin a été fait il y a 10 heures et 10 minutes, à 14:25 UTC
Prévision valable du 23 à 15 UTC au 23 à 24 UTC
Vent 9 kt de nord-est
Visibilité: 8000 m
Ciel couvert à une hauteur de 2500 ft
Probabilité 40% :
Temporairement
du 23 à 15 UTC au 23 à 24 UTC
Visibilité: 4500 m
Nuages fragmentés à une hauteur de 1200 ft
neige faible

TAF: LSZR 231425Z 2315/2324 05009KT 8000 OVC025 PROB40 TEMPO 2315/2324 4500 -SN BKN012

Observations et prévisions météorologiques de plus de 4000 aéroports (messages METAR et TAF).

Les stations disponibles sont représentées par des disques jaunes et rouges sur la carte.

Passer la souris dessus pour voir le nom de la station.

Cliquer dessus pour voir les observations et prévisions météorologiques.

Pour changer de carte: cliquez sur les boutons verts avec une croix noire pour zoomer, sur le bouton vert avec un tiret pour effectuer un zoom arrière, ou sur les flèches vertes pour les cartes adjacentes.


METAR-TAF: